createdAt,value
2022-08-17T00:00:44.164Z,17.88
2022-08-17T00:03:20.656Z,17.68
2022-08-17T00:05:56.961Z,17.77
2022-08-17T00:08:28.748Z,17.92
2022-08-17T00:10:57.913Z,17.84
2022-08-17T00:13:32.464Z,17.29
2022-08-17T00:16:04.157Z,17.10
2022-08-17T00:19:05.768Z,16.90
2022-08-17T00:21:25.490Z,16.97
2022-08-17T00:23:54.960Z,16.89
2022-08-17T00:26:35.836Z,16.83
2022-08-17T00:29:19.665Z,17.05
2022-08-17T00:31:48.556Z,17.22
2022-08-17T00:34:16.642Z,17.33
2022-08-17T00:36:45.160Z,17.14
2022-08-17T00:39:13.499Z,16.91
2022-08-17T00:41:42.142Z,16.83
2022-08-17T00:44:13.254Z,16.99
2022-08-17T00:46:43.629Z,17.18
2022-08-17T00:49:13.742Z,16.94
2022-08-17T00:51:57.318Z,16.79
2022-08-17T00:54:41.854Z,16.58
2022-08-17T00:57:14.393Z,16.55
2022-08-17T01:00:02.641Z,16.71
2022-08-17T01:02:42.202Z,16.55
2022-08-17T01:05:16.301Z,16.68
2022-08-17T01:07:49.099Z,16.60
2022-08-17T01:10:57.176Z,16.47
2022-08-17T01:13:14.025Z,16.27
2022-08-17T01:15:50.527Z,16.35
2022-08-17T01:18:19.013Z,16.31
2022-08-17T01:20:55.291Z,16.27
2022-08-17T01:23:26.630Z,16.27
2022-08-17T01:25:57.465Z,16.17
2022-08-17T01:28:53.178Z,16.09
2022-08-17T01:31:17.929Z,16.11
2022-08-17T01:33:46.141Z,16.08
2022-08-17T01:36:14.681Z,16.09
2022-08-17T01:38:44.839Z,15.96
2022-08-17T01:41:17.689Z,16.01
2022-08-17T01:44:12.502Z,16.01
2022-08-17T01:46:40.708Z,16.02
2022-08-17T01:49:13.173Z,16.05
2022-08-17T01:51:42.729Z,16.13
2022-08-17T01:54:16.257Z,15.85
2022-08-17T01:56:48.175Z,15.98
2022-08-17T01:59:17.866Z,15.92
2022-08-17T02:01:48.339Z,15.70
2022-08-17T02:04:16.960Z,15.82
2022-08-17T02:06:53.147Z,15.92
2022-08-17T02:09:25.933Z,16.12
2022-08-17T02:11:56.331Z,16.26
2022-08-17T02:14:25.387Z,16.41
2022-08-17T02:16:54.440Z,16.42
2022-08-17T02:19:24.121Z,16.52
2022-08-17T02:21:54.016Z,16.52
2022-08-17T02:25:00.491Z,16.61
2022-08-17T02:27:15.284Z,16.65
2022-08-17T02:29:43.387Z,16.59
2022-08-17T02:32:24.811Z,16.59
2022-08-17T02:34:58.211Z,16.61
2022-08-17T02:37:27.838Z,16.41
2022-08-17T02:39:58.552Z,16.10
2022-08-17T02:42:35.342Z,15.48
2022-08-17T02:45:07.626Z,15.37
2022-08-17T02:47:36.214Z,15.30
2022-08-17T02:50:05.280Z,15.40
2022-08-17T02:52:43.871Z,15.41
2022-08-17T02:55:27.031Z,15.35
2022-08-17T02:57:55.770Z,15.36
2022-08-17T03:00:25.994Z,15.31
2022-08-17T03:02:54.577Z,15.20
2022-08-17T03:05:25.085Z,15.16
2022-08-17T03:07:53.565Z,15.13
2022-08-17T03:10:22.763Z,15.35
2022-08-17T03:12:51.767Z,15.69
2022-08-17T03:15:29.013Z,15.84
2022-08-17T03:17:58.029Z,15.87
2022-08-17T03:20:28.326Z,15.72
2022-08-17T03:23:02.988Z,15.66
2022-08-17T03:25:39.011Z,15.82
2022-08-17T03:28:07.631Z,15.67
2022-08-17T03:30:36.370Z,15.73
2022-08-17T03:33:11.442Z,15.86
2022-08-17T03:35:41.606Z,15.93
2022-08-17T03:38:12.220Z,15.94
2022-08-17T03:40:56.909Z,15.77
2022-08-17T03:43:33.477Z,15.95
2022-08-17T03:46:26.961Z,15.92
2022-08-17T03:49:16.506Z,15.92
2022-08-17T03:52:03.641Z,15.94
2022-08-17T03:54:50.319Z,15.62
2022-08-17T03:57:18.621Z,15.53
2022-08-17T03:59:47.618Z,15.64
2022-08-17T04:02:35.154Z,15.73
2022-08-17T04:05:04.373Z,15.52
2022-08-17T04:07:33.460Z,15.13
2022-08-17T04:10:01.600Z,15.07
2022-08-17T04:12:32.861Z,15.42
2022-08-17T04:15:01.236Z,15.49
2022-08-17T04:17:30.772Z,15.48
2022-08-17T04:19:59.436Z,15.44
2022-08-17T04:22:32.537Z,15.55
2022-08-17T04:25:06.256Z,15.68
2022-08-17T04:27:35.548Z,15.15
2022-08-17T04:30:04.142Z,14.77
2022-08-17T04:33:04.018Z,14.98
2022-08-17T04:35:26.468Z,14.82
2022-08-17T04:37:54.810Z,14.85
2022-08-17T04:40:43.680Z,15.10
2022-08-17T04:43:15.729Z,14.93
2022-08-17T04:45:56.571Z,14.92
2022-08-17T04:48:37.245Z,15.03
2022-08-17T04:51:16.747Z,14.99
2022-08-17T04:53:53.915Z,15.10
2022-08-17T04:56:25.199Z,15.53
2022-08-17T04:58:57.102Z,15.82
2022-08-17T05:01:27.924Z,16.03
2022-08-17T05:03:58.400Z,16.20
2022-08-17T05:06:28.190Z,16.23
2022-08-17T05:08:57.475Z,16.16
2022-08-17T05:11:27.419Z,16.12
2022-08-17T05:13:56.967Z,15.97
2022-08-17T05:16:27.143Z,15.52
2022-08-17T05:18:55.974Z,15.64
2022-08-17T05:21:24.783Z,15.78
2022-08-17T05:23:54.865Z,15.79
2022-08-17T05:26:26.668Z,15.83
2022-08-17T05:29:00.491Z,15.89
2022-08-17T05:31:31.880Z,15.98
2022-08-17T05:34:00.515Z,16.27
2022-08-17T05:36:37.900Z,16.44
2022-08-17T05:39:16.068Z,16.53
2022-08-17T05:41:45.094Z,16.75
2022-08-17T05:44:13.177Z,16.84
2022-08-17T05:46:44.675Z,17.01
2022-08-17T05:49:15.715Z,17.23
2022-08-17T05:52:08.092Z,17.26
2022-08-17T05:54:59.013Z,17.33
2022-08-17T05:57:56.674Z,17.49
2022-08-17T06:01:03.222Z,17.72
2022-08-17T06:03:49.351Z,17.86
2022-08-17T06:06:37.988Z,17.99
2022-08-17T06:09:33.592Z,17.99
2022-08-17T06:12:05.369Z,18.13
2022-08-17T06:14:46.361Z,18.03
2022-08-17T06:17:19.860Z,18.11
2022-08-17T06:20:14.563Z,18.06
2022-08-17T06:22:51.925Z,18.20
2022-08-17T06:25:29.899Z,18.43
2022-08-17T06:28:06.293Z,18.54
2022-08-17T06:30:59.161Z,18.79
2022-08-17T06:33:33.882Z,19.00
2022-08-17T06:36:15.804Z,19.07
2022-08-17T06:38:47.255Z,19.21
2022-08-17T06:41:30.313Z,19.31
2022-08-17T06:44:04.221Z,19.30
2022-08-17T06:46:37.378Z,19.60
2022-08-17T06:49:12.754Z,19.72
2022-08-17T06:51:44.618Z,19.87
2022-08-17T06:54:34.070Z,20.02
2022-08-17T06:57:33.092Z,19.99
2022-08-17T07:00:09.735Z,20.20
2022-08-17T07:03:08.806Z,20.20
2022-08-17T07:05:46.025Z,20.44
2022-08-17T07:08:39.523Z,20.49
2022-08-17T07:11:15.593Z,20.73
2022-08-17T07:14:17.209Z,20.82
2022-08-17T07:16:50.141Z,20.89
2022-08-17T07:19:21.310Z,21.28
2022-08-17T07:22:01.453Z,21.59
2022-08-17T07:24:54.901Z,21.45
2022-08-17T07:27:28.764Z,21.53
2022-08-17T07:30:10.722Z,21.58
2022-08-17T07:32:49.036Z,21.80
2022-08-17T07:35:40.889Z,21.99
2022-08-17T07:38:25.165Z,22.30
2022-08-17T07:41:03.682Z,22.75
2022-08-17T07:43:33.569Z,22.80
2022-08-17T07:46:26.378Z,22.81
2022-08-17T07:49:16.440Z,22.63
2022-08-17T07:51:44.545Z,23.05
2022-08-17T07:54:19.693Z,23.08
2022-08-17T07:56:55.029Z,23.13
2022-08-17T07:59:24.842Z,23.14
2022-08-17T08:01:58.854Z,23.39
2022-08-17T08:07:39.806Z,23.66
2022-08-17T08:10:17.991Z,23.66
2022-08-17T08:13:01.825Z,23.84
2022-08-17T08:15:53.582Z,24.31
2022-08-17T08:18:53.387Z,24.23
2022-08-17T08:21:40.648Z,24.29
2022-08-17T08:24:24.356Z,24.47
2022-08-17T08:27:42.743Z,24.70
2022-08-17T08:30:16.670Z,24.83
2022-08-17T08:32:57.253Z,24.90
2022-08-17T08:35:27.865Z,25.26
2022-08-17T08:38:03.923Z,25.29
2022-08-17T08:40:55.028Z,25.39
2022-08-17T08:43:31.904Z,25.54
2022-08-17T08:46:15.108Z,25.39
2022-08-17T08:49:12.282Z,25.96
2022-08-17T08:51:53.937Z,26.42
2022-08-17T08:54:40.446Z,26.46
2022-08-17T08:57:37.669Z,26.36
2022-08-17T09:00:21.940Z,27.21
2022-08-17T09:03:42.741Z,27.09
2022-08-17T09:06:39.786Z,26.96
2022-08-17T09:09:23.111Z,27.16
2022-08-17T09:12:18.407Z,27.07
2022-08-17T09:15:03.020Z,27.13
2022-08-17T09:19:00.555Z,28.06
2022-08-17T09:21:18.693Z,28.14
2022-08-17T09:23:52.608Z,27.73
2022-08-17T09:26:26.781Z,28.05
2022-08-17T09:29:02.649Z,28.11
2022-08-17T09:31:47.093Z,28.29
2022-08-17T09:34:22.405Z,28.90
2022-08-17T09:37:21.628Z,28.82
2022-08-17T09:39:58.748Z,29.11
2022-08-17T09:42:39.431Z,29.74
2022-08-17T09:45:59.909Z,29.44
2022-08-17T09:48:37.873Z,29.96
2022-08-17T09:51:29.367Z,30.11
2022-08-17T09:54:09.700Z,30.39
2022-08-17T09:57:18.420Z,29.50
2022-08-17T10:00:18.317Z,29.97
2022-08-17T10:03:09.946Z,29.95
2022-08-17T10:05:47.666Z,30.50
2022-08-17T10:08:29.073Z,30.75
2022-08-17T10:11:18.662Z,30.53
2022-08-17T10:14:36.227Z,30.42
2022-08-17T10:17:11.102Z,30.63
2022-08-17T10:19:59.885Z,30.52
2022-08-17T10:22:54.973Z,31.20
2022-08-17T10:25:54.814Z,31.06
2022-08-17T10:28:30.047Z,30.91
2022-08-17T10:31:33.270Z,31.11
2022-08-17T10:34:13.745Z,31.33
2022-08-17T10:36:48.684Z,31.39
2022-08-17T10:39:52.739Z,31.07
2022-08-17T10:42:38.695Z,31.20
2022-08-17T10:45:16.765Z,31.46
2022-08-17T10:48:08.223Z,31.91
2022-08-17T10:51:01.161Z,31.50
2022-08-17T10:53:41.003Z,31.91
2022-08-17T10:56:19.351Z,32.29
2022-08-17T10:58:57.303Z,31.74
2022-08-17T11:01:25.249Z,32.02
2022-08-17T11:03:58.832Z,32.23
2022-08-17T11:06:35.746Z,32.31
2022-08-17T11:09:25.608Z,32.79
2022-08-17T11:12:07.968Z,32.45
2022-08-17T11:14:51.628Z,32.46
2022-08-17T11:17:47.297Z,32.54
2022-08-17T11:20:28.967Z,33.20
2022-08-17T11:23:00.304Z,33.20
2022-08-17T11:25:48.189Z,33.13
2022-08-17T11:28:37.257Z,32.92
2022-08-17T11:31:38.456Z,33.32
2022-08-17T11:34:27.654Z,32.83
2022-08-17T11:37:43.123Z,33.28
2022-08-17T11:40:16.492Z,33.57
2022-08-17T11:43:44.522Z,33.13
2022-08-17T11:47:08.581Z,34.01
2022-08-17T11:50:16.044Z,33.96
2022-08-17T11:52:50.965Z,33.73
2022-08-17T11:55:37.530Z,33.99
2022-08-17T11:58:27.171Z,33.89
2022-08-17T12:00:58.629Z,33.71
2022-08-17T12:03:35.348Z,33.58
2022-08-17T12:06:40.797Z,33.47
2022-08-17T12:09:12.101Z,34.30
2022-08-17T12:12:13.669Z,34.02
2022-08-17T12:17:42.685Z,34.51
2022-08-17T12:20:30.267Z,34.76
2022-08-17T12:23:26.403Z,34.83
2022-08-17T12:26:05.515Z,33.73
2022-08-17T12:28:37.520Z,33.98
2022-08-17T12:31:12.804Z,34.04
2022-08-17T12:33:46.037Z,34.27
2022-08-17T12:36:17.039Z,34.54
2022-08-17T12:39:13.832Z,34.60
2022-08-17T12:41:46.187Z,34.71
2022-08-17T12:44:24.372Z,34.35
2022-08-17T12:47:11.921Z,34.28
2022-08-17T12:49:43.397Z,33.57
2022-08-17T12:52:21.541Z,34.22
2022-08-17T12:55:16.966Z,34.78
2022-08-17T12:57:50.427Z,34.29
2022-08-17T13:00:31.615Z,34.20
2022-08-17T13:03:07.219Z,35.11
2022-08-17T13:05:42.296Z,35.04
2022-08-17T13:08:31.747Z,34.59
2022-08-17T13:11:03.650Z,34.57
2022-08-17T13:13:35.240Z,34.30
2022-08-17T13:16:05.503Z,34.71
2022-08-17T13:18:50.496Z,33.99
2022-08-17T13:21:23.442Z,33.41
2022-08-17T13:24:02.743Z,33.51
2022-08-17T13:26:34.194Z,33.68
2022-08-17T13:29:07.219Z,34.01
2022-08-17T13:31:47.443Z,34.57
2022-08-17T13:34:26.807Z,35.09
2022-08-17T13:37:33.710Z,35.19
2022-08-17T13:40:13.434Z,34.46
2022-08-17T13:42:50.571Z,34.51
2022-08-17T13:45:36.899Z,34.79
2022-08-17T13:48:10.974Z,34.74
2022-08-17T13:50:56.037Z,34.27
2022-08-17T13:53:28.600Z,33.16
2022-08-17T13:56:37.558Z,33.20
2022-08-17T13:59:53.204Z,33.63
2022-08-17T14:02:09.610Z,34.09
2022-08-17T14:04:40.960Z,34.54
2022-08-17T14:07:12.731Z,34.80
2022-08-17T14:10:02.552Z,34.96
2022-08-17T14:12:34.432Z,35.03
2022-08-17T14:15:03.265Z,35.32
2022-08-17T14:17:38.448Z,35.55
2022-08-17T14:20:14.179Z,35.69
2022-08-17T14:22:46.829Z,35.16
2022-08-17T14:25:22.084Z,35.16
2022-08-17T14:27:53.635Z,34.96
2022-08-17T14:30:25.471Z,35.19
2022-08-17T14:32:55.810Z,35.20
2022-08-17T14:35:25.376Z,35.94
2022-08-17T14:37:54.331Z,35.32
2022-08-17T14:40:25.752Z,35.28
2022-08-17T14:42:56.328Z,35.17
2022-08-17T14:45:29.918Z,34.91
2022-08-17T14:48:08.704Z,34.84
2022-08-17T14:50:39.939Z,34.93
2022-08-17T14:53:10.039Z,35.21
2022-08-17T14:55:41.203Z,35.19
2022-08-17T14:58:10.290Z,35.42
2022-08-17T15:00:39.740Z,35.23
2022-08-17T15:03:07.827Z,34.94
2022-08-17T15:05:37.743Z,35.28
2022-08-17T15:08:09.118Z,35.28
2022-08-17T15:10:38.055Z,35.31
2022-08-17T15:13:20.343Z,34.74
2022-08-17T15:15:50.180Z,34.62
2022-08-17T15:18:18.285Z,34.10
2022-08-17T15:20:49.989Z,33.87
2022-08-17T15:23:21.553Z,33.57
2022-08-17T15:25:51.895Z,33.70
2022-08-17T15:28:24.536Z,33.74
2022-08-17T15:30:54.297Z,33.83
2022-08-17T15:33:30.735Z,33.78
2022-08-17T15:36:02.051Z,33.65
2022-08-17T15:38:31.709Z,33.60
2022-08-17T15:40:59.804Z,33.47
2022-08-17T15:43:33.685Z,33.28
2022-08-17T15:46:06.259Z,33.09
2022-08-17T15:48:43.056Z,33.04
2022-08-17T15:51:16.390Z,32.74
2022-08-17T15:53:49.699Z,32.68
2022-08-17T15:56:18.629Z,32.55
2022-08-17T15:58:48.304Z,32.39
2022-08-17T16:02:07.743Z,31.89
2022-08-17T16:04:26.722Z,31.80
2022-08-17T16:06:57.390Z,31.70
2022-08-17T16:09:25.291Z,31.75
2022-08-17T16:11:55.702Z,31.83
2022-08-17T16:14:24.732Z,31.76
2022-08-17T16:17:00.718Z,31.60
2022-08-17T16:19:28.987Z,31.51
2022-08-17T16:21:57.214Z,31.26
2022-08-17T16:24:25.339Z,31.04
2022-08-17T16:26:53.285Z,31.03
2022-08-17T16:29:22.617Z,31.03
2022-08-17T16:31:51.025Z,30.96
2022-08-17T16:34:20.177Z,30.92
2022-08-17T16:36:55.014Z,30.85
2022-08-17T16:39:27.080Z,30.77
2022-08-17T16:41:55.401Z,30.76
2022-08-17T16:44:23.918Z,30.66
2022-08-17T16:46:52.260Z,30.53
2022-08-17T16:49:35.466Z,30.53
2022-08-17T16:52:07.692Z,30.43
2022-08-17T16:54:38.192Z,30.35
2022-08-17T16:57:06.670Z,30.29
2022-08-17T16:59:40.769Z,30.29
2022-08-17T17:02:14.637Z,30.17
2022-08-17T17:04:51.927Z,30.04
2022-08-17T17:07:39.227Z,30.15
2022-08-17T17:10:12.589Z,30.08
2022-08-17T17:13:03.133Z,29.96
2022-08-17T17:15:47.752Z,30.03
2022-08-17T17:18:18.012Z,30.05
2022-08-17T17:20:55.979Z,30.04
2022-08-17T17:23:57.730Z,29.86
2022-08-17T17:26:36.084Z,29.92
2022-08-17T17:29:25.817Z,29.69
2022-08-17T17:32:05.793Z,29.47
2022-08-17T17:34:35.738Z,29.26
2022-08-17T17:37:09.886Z,29.13
2022-08-17T17:39:47.653Z,28.97
2022-08-17T17:42:23.565Z,28.65
2022-08-17T17:45:05.879Z,28.51
2022-08-17T17:47:34.740Z,28.45
2022-08-17T17:50:06.122Z,28.38
2022-08-17T17:53:05.739Z,28.21
2022-08-17T17:55:36.592Z,28.07
2022-08-17T17:58:45.101Z,27.98
2022-08-17T18:01:49.695Z,27.70
2022-08-17T18:04:34.855Z,27.42
2022-08-17T18:07:30.564Z,27.21
2022-08-17T18:10:29.251Z,27.01
2022-08-17T18:13:04.844Z,26.64
2022-08-17T18:15:52.202Z,26.62
2022-08-17T18:18:38.862Z,26.44
2022-08-17T18:21:20.824Z,26.49
2022-08-17T18:24:05.258Z,26.66
2022-08-17T18:26:37.724Z,26.73
2022-08-17T18:29:29.333Z,26.42
2022-08-17T18:32:33.880Z,26.35
2022-08-17T18:35:10.668Z,26.21
2022-08-17T18:37:49.374Z,26.24
2022-08-17T18:40:20.692Z,26.16
2022-08-17T18:43:06.922Z,25.87
2022-08-17T18:45:42.048Z,25.52
2022-08-17T18:48:35.083Z,25.47
2022-08-17T18:51:40.850Z,25.24
2022-08-17T18:54:26.512Z,25.24
2022-08-17T18:57:00.137Z,25.01
2022-08-17T18:59:50.225Z,24.86
2022-08-17T19:02:44.814Z,24.65
2022-08-17T19:05:28.365Z,24.65
2022-08-17T19:08:35.562Z,24.86
2022-08-17T19:11:34.995Z,24.96
2022-08-17T19:14:17.719Z,24.56
2022-08-17T19:17:01.917Z,24.34
2022-08-17T19:19:37.023Z,24.24
2022-08-17T19:22:47.839Z,24.41
2022-08-17T19:25:22.128Z,24.34
2022-08-17T19:28:33.450Z,24.14
2022-08-17T19:31:12.047Z,22.98
2022-08-17T19:33:39.952Z,23.21
2022-08-17T19:36:14.475Z,23.50
2022-08-17T19:39:05.614Z,23.56
2022-08-17T19:41:33.574Z,23.15
2022-08-17T19:44:24.519Z,23.21
2022-08-17T19:47:53.312Z,22.98
2022-08-17T19:50:39.794Z,22.78
2022-08-17T19:53:19.783Z,22.57
2022-08-17T19:56:17.491Z,22.58
2022-08-17T19:59:02.374Z,22.32
2022-08-17T20:01:54.232Z,22.11
2022-08-17T20:04:42.599Z,21.85
2022-08-17T20:07:21.188Z,21.88
2022-08-17T20:09:57.719Z,21.64
2022-08-17T20:12:32.344Z,21.69
2022-08-17T20:15:32.054Z,21.62
2022-08-17T20:18:06.755Z,21.56
2022-08-17T20:20:47.054Z,21.52
2022-08-17T20:23:30.223Z,21.46
2022-08-17T20:26:18.523Z,21.31
2022-08-17T20:29:20.608Z,21.37
2022-08-17T20:32:14.663Z,21.57
2022-08-17T20:34:47.719Z,21.99
2022-08-17T20:37:15.786Z,21.99
2022-08-17T20:40:08.997Z,22.35
2022-08-17T20:42:37.979Z,22.46
2022-08-17T20:45:27.711Z,22.26
2022-08-17T20:50:57.362Z,21.92
2022-08-17T20:53:56.326Z,22.13
2022-08-17T20:56:50.892Z,21.97
2022-08-17T20:59:29.434Z,21.90
2022-08-17T21:02:18.405Z,22.13
2022-08-17T21:05:02.002Z,22.38
2022-08-17T21:07:43.176Z,22.23
2022-08-17T21:10:27.484Z,22.13
2022-08-17T21:13:05.735Z,21.85
2022-08-17T21:16:01.337Z,21.87
2022-08-17T21:18:42.468Z,21.96
2022-08-17T21:21:25.921Z,22.02
2022-08-17T21:24:17.395Z,22.22
2022-08-17T21:27:01.079Z,22.33
2022-08-17T21:29:34.034Z,22.29
2022-08-17T21:32:09.548Z,21.90
2022-08-17T21:34:46.395Z,21.41
2022-08-17T21:37:20.297Z,21.36
2022-08-17T21:40:19.568Z,21.39
2022-08-17T21:42:53.927Z,21.43
2022-08-17T21:45:25.732Z,21.39
2022-08-17T21:48:15.495Z,21.63
2022-08-17T21:50:47.665Z,21.81
2022-08-17T21:53:29.390Z,21.68
2022-08-17T21:56:01.173Z,21.57
2022-08-17T21:58:34.195Z,20.82
2022-08-17T22:01:21.237Z,20.65
2022-08-17T22:04:06.737Z,20.84
2022-08-17T22:06:54.204Z,21.05
2022-08-17T22:09:27.652Z,21.21
2022-08-17T22:12:12.446Z,21.31
2022-08-17T22:14:52.264Z,21.33
2022-08-17T22:17:35.734Z,21.24
2022-08-17T22:20:15.667Z,20.61
2022-08-17T22:23:08.011Z,20.26
2022-08-17T22:25:40.890Z,20.63
2022-08-17T22:28:11.154Z,20.88
2022-08-17T22:31:02.071Z,21.11
2022-08-17T22:33:41.717Z,21.06
2022-08-17T22:36:29.216Z,20.99
2022-08-17T22:39:09.460Z,20.77
2022-08-17T22:41:49.472Z,20.43
2022-08-17T22:44:38.969Z,20.53
2022-08-17T22:47:20.108Z,20.64
2022-08-17T22:49:52.980Z,20.81
2022-08-17T22:53:02.944Z,20.82
2022-08-17T22:55:53.278Z,20.71
2022-08-17T22:58:44.382Z,20.49
2022-08-17T23:01:33.682Z,20.47
2022-08-17T23:04:11.598Z,20.34
2022-08-17T23:06:43.775Z,20.12
2022-08-17T23:09:11.752Z,20.18
2022-08-17T23:11:49.992Z,20.33
2022-08-17T23:14:22.338Z,20.12
2022-08-17T23:16:54.159Z,19.95
2022-08-17T23:19:23.058Z,19.83
2022-08-17T23:21:53.964Z,19.44
2022-08-17T23:24:28.317Z,19.43
2022-08-17T23:27:00.721Z,19.44
2022-08-17T23:29:30.504Z,19.58
2022-08-17T23:32:02.530Z,19.69
2022-08-17T23:34:30.777Z,19.28
2022-08-17T23:36:59.006Z,19.65
2022-08-17T23:39:28.116Z,19.90
2022-08-17T23:41:59.098Z,19.51
2022-08-17T23:44:28.569Z,19.79
2022-08-17T23:46:56.784Z,19.95
2022-08-17T23:49:26.377Z,19.88
2022-08-17T23:51:57.865Z,19.59
2022-08-17T23:54:29.751Z,19.53
2022-08-17T23:56:57.693Z,19.56
2022-08-17T23:59:25.739Z,19.75
